Time;durP1;ratioP1;P1;durP2;ratioP2;P2;SDS_P1;SDS_P2;PMS_P1;PMS_P2;Temp;Humidity;BMP_temperature;BMP_pressure;BME280_temperature;BME280_humidity;BME280_pressure;Samples;Min_cycle;Max_cycle;Signal;HPM_P1;HPM_P2
2024/01/04 00:02:14;;;;;;;2.73;2.53;;;;;;;;;;4919488;29;20260;-86
2024/01/04 00:04:45;;;;;;;2.93;2.60;;;;;;;;;;4919480;29;20303;-87
2024/01/04 00:07:16;;;;;;;5.30;2.97;;;;;;;;;;4926592;29;20295;-86
2024/01/04 00:09:46;;;;;;;2.33;1.83;;;;;;;;;;4908699;29;20332;-86
2024/01/04 00:12:16;;;;;;;1.83;0.90;;;;;;;;;;4901016;29;20349;-87
2024/01/04 00:14:45;;;;;;;0.50;0.50;;;;;;;;;;4900054;29;20311;-86
2024/01/04 00:17:12;;;;;;;0.40;0.40;;;;;;;;;;4900590;29;20236;-87
2024/01/04 00:19:40;;;;;;;0.23;0.23;;;;;;;;;;4906631;29;20312;-86
2024/01/04 00:22:09;;;;;;;0.30;0.30;;;;;;;;;;4918421;29;20232;-87
2024/01/04 00:24:41;;;;;;;0.40;0.40;;;;;;;;;;4915596;29;20634;-86
2024/01/04 00:27:08;;;;;;;0.37;0.30;;;;;;;;;;4914794;29;20233;-86
2024/01/04 00:29:36;;;;;;;3.80;0.63;;;;;;;;;;4916237;29;20249;-87
2024/01/04 00:32:10;;;;;;;0.30;0.30;;;;;;;;;;4912242;29;20254;-86
2024/01/04 00:34:40;;;;;;;0.40;0.40;;;;;;;;;;4897291;29;20234;-87
2024/01/04 00:37:10;;;;;;;0.30;0.30;;;;;;;;;;4897228;29;20238;-88
2024/01/04 00:39:37;;;;;;;0.30;0.30;;;;;;;;;;4907977;29;20324;-86
2024/01/04 00:42:05;;;;;;;0.30;0.30;;;;;;;;;;4917552;29;20233;-87
2024/01/04 00:44:35;;;;;;;0.30;0.30;;;;;;;;;;4916981;29;20323;-86
2024/01/04 00:47:05;;;;;;;1.23;0.40;;;;;;;;;;4917660;29;20776;-86
2024/01/04 00:49:37;;;;;;;0.30;0.30;;;;;;;;;;4916662;29;20213;-86
2024/01/04 00:52:07;;;;;;;0.83;0.40;;;;;;;;;;4922304;29;20249;-86
2024/01/04 00:54:39;;;;;;;0.40;0.40;;;;;;;;;;4935141;29;20219;-86
2024/01/04 00:57:08;;;;;;;0.30;0.30;;;;;;;;;;4934313;29;20206;-86
2024/01/04 00:59:36;;;;;;;0.83;0.83;;;;;;;;;;4928583;29;20212;-86
2024/01/04 01:02:04;;;;;;;3.07;2.40;;;;;;;;;;4929731;29;20399;-85
2024/01/04 01:04:37;;;;;;;3.10;2.90;;;;;;;;;;4928851;29;20284;-85
2024/01/04 01:07:05;;;;;;;3.87;2.40;;;;;;;;;;4914961;29;20239;-86
2024/01/04 01:09:35;;;;;;;4.03;2.53;;;;;;;;;;4918204;29;20257;-86
2024/01/04 01:12:11;;;;;;;2.13;2.03;;;;;;;;;;4921163;29;20344;-87
2024/01/04 01:14:39;;;;;;;2.60;2.40;;;;;;;;;;4920017;29;20177;-85
2024/01/04 01:17:12;;;;;;;3.27;2.07;;;;;;;;;;4920150;29;20185;-86
2024/01/04 01:19:41;;;;;;;3.80;2.33;;;;;;;;;;4921352;29;20220;-85
2024/01/04 01:22:09;;;;;;;4.87;2.80;;;;;;;;;;4909519;29;20252;-85
2024/01/04 01:24:36;;;;;;;1.97;1.87;;;;;;;;;;4908710;29;20200;-85
2024/01/04 01:27:06;;;;;;;2.97;2.20;;;;;;;;;;4915125;29;20237;-86
2024/01/04 01:29:33;;;;;;;2.27;2.03;;;;;;;;;;4915258;29;20212;-86
2024/01/04 01:32:01;;;;;;;2.80;2.40;;;;;;;;;;4916120;29;20228;-86
2024/01/04 01:34:28;;;;;;;2.33;2.07;;;;;;;;;;4917756;29;20205;-86
2024/01/04 01:36:58;;;;;;;6.03;2.30;;;;;;;;;;4916257;29;20645;-87
2024/01/04 01:39:25;;;;;;;3.93;2.40;;;;;;;;;;4914084;29;20201;-85
2024/01/04 01:41:52;;;;;;;8.70;2.33;;;;;;;;;;4912871;29;20204;-85
2024/01/04 01:44:20;;;;;;;2.53;2.03;;;;;;;;;;4912195;29;20213;-86
2024/01/04 01:46:48;;;;;;;5.43;2.47;;;;;;;;;;4907855;29;20777;-86
2024/01/04 01:49:15;;;;;;;4.40;2.60;;;;;;;;;;4910813;29;20197;-88
2024/01/04 01:51:42;;;;;;;2.63;2.43;;;;;;;;;;4901174;29;20200;-86
2024/01/04 01:54:17;;;;;;;3.93;2.00;;;;;;;;;;4905062;29;20209;-87
2024/01/04 01:56:51;;;;;;;2.97;2.77;;;;;;;;;;4905204;29;20207;-85
2024/01/04 02:02:13;;;;;;;2.73;2.57;;;;;;;;;;4896094;29;20209;-85
2024/01/04 02:04:41;;;;;;;3.07;2.80;;;;;;;;;;4907082;29;20291;-84
2024/01/04 02:07:08;;;;;;;2.63;2.43;;;;;;;;;;4905902;29;20228;-85
2024/01/04 02:09:43;;;;;;;2.77;2.53;;;;;;;;;;4905020;29;20264;-86
2024/01/04 02:12:17;;;;;;;11.67;2.80;;;;;;;;;;4904182;29;20469;-86
2024/01/04 02:14:44;;;;;;;3.47;2.70;;;;;;;;;;4900936;29;20740;-86
2024/01/04 02:17:14;;;;;;;3.07;2.77;;;;;;;;;;4899994;29;20604;-86
2024/01/04 02:19:49;;;;;;;4.47;2.63;;;;;;;;;;4899637;29;20193;-87
2024/01/04 02:22:17;;;;;;;4.43;2.67;;;;;;;;;;4915397;29;20262;-87
2024/01/04 02:24:46;;;;;;;2.50;2.30;;;;;;;;;;4923748;29;20216;-87
2024/01/04 02:27:15;;;;;;;2.57;2.40;;;;;;;;;;4916205;29;20283;-88
2024/01/04 02:29:44;;;;;;;4.07;2.50;;;;;;;;;;4915948;29;20741;-86
2024/01/04 02:32:14;;;;;;;2.90;2.03;;;;;;;;;;4915601;29;20215;-87
2024/01/04 02:34:42;;;;;;;1.77;1.67;;;;;;;;;;4916447;29;20619;-87
2024/01/04 02:37:14;;;;;;;3.50;2.23;;;;;;;;;;4916769;29;20381;-88
2024/01/04 02:39:40;;;;;;;1.77;1.67;;;;;;;;;;4917186;29;20610;-86
2024/01/04 02:42:11;;;;;;;2.20;2.00;;;;;;;;;;4917611;29;20208;-87
2024/01/04 02:44:41;;;;;;;2.20;2.00;;;;;;;;;;4916900;29;20244;-88
2024/01/04 02:47:11;;;;;;;3.33;2.07;;;;;;;;;;4916058;29;20242;-87
2024/01/04 02:49:39;;;;;;;3.00;2.00;;;;;;;;;;4917388;29;20255;-86
2024/01/04 02:52:07;;;;;;;2.50;2.23;;;;;;;;;;4926606;29;20204;-87
2024/01/04 02:54:34;;;;;;;2.50;2.30;;;;;;;;;;4917101;29;20208;-88
2024/01/04 02:57:15;;;;;;;;;;;;;;;;;;;;;
2024/01/04 02:59:51;;;;;;;1.87;1.77;;;;;;;;;;4916162;29;20204;-88
2024/01/04 03:02:29;;;;;;;2.37;2.27;;;;;;;;;;4917029;29;20207;-87
2024/01/04 03:04:56;;;;;;;4.93;2.13;;;;;;;;;;4916418;29;20220;-88
2024/01/04 03:07:28;;;;;;;3.73;2.37;;;;;;;;;;4916424;29;20544;-86
2024/01/04 03:09:56;;;;;;;3.17;2.73;;;;;;;;;;4937486;29;20231;-87
2024/01/04 03:12:27;;;;;;;4.47;2.00;;;;;;;;;;4937931;29;20283;-87
2024/01/04 03:14:58;;;;;;;3.10;2.87;;;;;;;;;;4940878;29;20203;-87
2024/01/04 03:17:26;;;;;;;4.37;2.40;;;;;;;;;;4939847;29;20862;-87
2024/01/04 03:19:56;;;;;;;2.90;2.60;;;;;;;;;;4942722;29;20274;-86
2024/01/04 03:22:23;;;;;;;3.13;2.30;;;;;;;;;;4947143;29;20210;-86
2024/01/04 03:24:51;;;;;;;6.77;2.37;;;;;;;;;;4949639;29;20293;-87
2024/01/04 03:27:19;;;;;;;2.03;1.93;;;;;;;;;;4935086;29;20238;-86
2024/01/04 03:29:52;;;;;;;2.83;2.07;;;;;;;;;;4935609;29;20225;-87
2024/01/04 03:32:26;;;;;;;2.20;2.10;;;;;;;;;;4935234;29;20203;-87
2024/01/04 03:34:54;;;;;;;2.53;2.30;;;;;;;;;;4935343;29;20742;-86
2024/01/04 03:37:22;;;;;;;2.43;2.23;;;;;;;;;;4935641;29;20737;-87
2024/01/04 03:39:51;;;;;;;5.90;2.43;;;;;;;;;;4935764;29;20223;-88
2024/01/04 03:42:20;;;;;;;2.10;2.00;;;;;;;;;;4935142;29;20199;-88
2024/01/04 03:45:06;;;;;;;2.30;2.20;;;;;;;;;;4935627;29;20245;-87
2024/01/04 03:47:37;;;;;;;8.23;2.47;;;;;;;;;;4934649;29;20804;-87
2024/01/04 03:50:06;;;;;;;4.40;2.70;;;;;;;;;;4934590;29;20208;-87
2024/01/04 03:52:37;;;;;;;2.07;1.97;;;;;;;;;;4936201;29;20295;-86
2024/01/04 03:55:05;;;;;;;2.70;2.50;;;;;;;;;;4935247;29;20214;-86
2024/01/04 03:57:33;;;;;;;2.73;2.30;;;;;;;;;;4933597;29;20641;-86
2024/01/04 04:00:01;;;;;;;2.37;2.17;;;;;;;;;;4936132;29;20254;-88
2024/01/04 04:02:31;;;;;;;1.90;1.77;;;;;;;;;;4938976;29;20207;-87
2024/01/04 04:05:11;;;;;;;4.80;2.37;;;;;;;;;;4940668;29;20306;-88
2024/01/04 04:07:40;;;;;;;2.60;2.23;;;;;;;;;;4938384;29;20518;-87
2024/01/04 04:10:10;;;;;;;1.93;1.83;;;;;;;;;;4939021;29;20203;-88
2024/01/04 04:12:38;;;;;;;2.47;2.13;;;;;;;;;;4937776;29;20204;-87
2024/01/04 04:15:05;;;;;;;14.73;2.37;;;;;;;;;;4938143;29;20210;-88
2024/01/04 04:17:32;;;;;;;1.80;1.70;;;;;;;;;;4939722;29;20203;-87
2024/01/04 04:19:59;;;;;;;4.33;2.37;;;;;;;;;;4938879;29;20199;-88
2024/01/04 04:22:28;;;;;;;5.50;2.47;;;;;;;;;;4937518;29;20600;-90
2024/01/04 04:24:56;;;;;;;3.80;2.70;;;;;;;;;;4938526;29;20232;-87
2024/01/04 04:27:23;;;;;;;1.80;1.53;;;;;;;;;;4936631;29;20290;-88
2024/01/04 04:29:50;;;;;;;3.33;2.10;;;;;;;;;;4938092;29;20192;-88
2024/01/04 04:32:17;;;;;;;4.20;1.97;;;;;;;;;;4939160;29;20555;-87
2024/01/04 04:34:45;;;;;;;3.80;2.67;;;;;;;;;;4946756;29;20227;-85
2024/01/04 04:37:13;;;;;;;3.10;2.03;;;;;;;;;;4943795;29;20195;-87
2024/01/04 04:39:41;;;;;;;1.90;1.80;;;;;;;;;;4939122;29;20210;-87
2024/01/04 04:42:10;;;;;;;1.70;1.60;;;;;;;;;;4940539;29;20207;-87
2024/01/04 04:44:37;;;;;;;3.40;2.10;;;;;;;;;;4939209;29;20207;-87
2024/01/04 04:47:04;;;;;;;1.97;1.83;;;;;;;;;;4938434;29;20203;-87
2024/01/04 04:49:31;;;;;;;4.50;2.83;;;;;;;;;;4937749;29;20231;-87
2024/01/04 04:51:59;;;;;;;4.67;2.50;;;;;;;;;;4938175;29;20203;-86
2024/01/04 04:54:26;;;;;;;5.40;3.10;;;;;;;;;;4943007;29;20215;-88
2024/01/04 04:56:55;;;;;;;5.87;2.77;;;;;;;;;;4950756;29;20226;-87
2024/01/04 04:59:23;;;;;;;7.33;3.87;;;;;;;;;;4950090;29;20196;-87
2024/01/04 05:01:51;;;;;;;3.77;2.83;;;;;;;;;;4956098;28;20200;-86
2024/01/04 05:04:19;;;;;;;2.23;2.03;;;;;;;;;;4952825;29;20412;-88
2024/01/04 05:06:47;;;;;;;3.50;2.47;;;;;;;;;;4937950;29;20204;-87
2024/01/04 05:09:15;;;;;;;3.43;3.00;;;;;;;;;;4937743;29;20310;-88
2024/01/04 05:12:11;;;;;;;2.80;2.60;;;;;;;;;;4937524;29;20231;-86
2024/01/04 05:14:48;;;;;;;5.33;1.87;;;;;;;;;;4942961;29;20306;-88
2024/01/04 05:17:15;;;;;;;1.87;1.70;;;;;;;;;;4937250;29;20596;-88
2024/01/04 05:19:45;;;;;;;1.97;1.83;;;;;;;;;;4937100;29;20204;-86
2024/01/04 05:22:13;;;;;;;3.27;2.13;;;;;;;;;;4938539;29;20212;-86
2024/01/04 05:24:40;;;;;;;4.67;2.73;;;;;;;;;;4938225;29;20250;-88
2024/01/04 05:27:08;;;;;;;2.33;2.13;;;;;;;;;;4945534;29;20207;-87
2024/01/04 05:29:36;;;;;;;5.30;2.53;;;;;;;;;;4943840;29;20227;-87
2024/01/04 05:32:06;;;;;;;3.60;2.10;;;;;;;;;;4937304;29;20192;-87
2024/01/04 05:34:36;;;;;;;7.17;2.83;;;;;;;;;;4938210;29;20223;-88
2024/01/04 05:37:03;;;;;;;2.90;2.20;;;;;;;;;;4936738;29;20241;-88
2024/01/04 05:39:31;;;;;;;4.33;3.17;;;;;;;;;;4935463;29;20206;-87
2024/01/04 05:41:59;;;;;;;4.67;2.73;;;;;;;;;;4936928;29;20617;-89
2024/01/04 05:44:26;;;;;;;3.33;3.00;;;;;;;;;;4936911;29;20226;-89
2024/01/04 05:46:54;;;;;;;3.13;1.87;;;;;;;;;;4936909;29;20203;-87
2024/01/04 05:49:24;;;;;;;3.20;2.67;;;;;;;;;;4936852;29;20235;-87
2024/01/04 05:51:51;;;;;;;2.60;1.90;;;;;;;;;;4940977;29;20196;-87
2024/01/04 05:54:20;;;;;;;3.80;3.13;;;;;;;;;;4938890;29;20651;-87
2024/01/04 05:56:48;;;;;;;4.87;3.03;;;;;;;;;;4936994;29;20214;-89
2024/01/04 05:59:17;;;;;;;2.50;1.83;;;;;;;;;;4935960;29;20747;-87
2024/01/04 06:01:44;;;;;;;10.13;2.80;;;;;;;;;;4935772;29;20255;-87
2024/01/04 06:04:18;;;;;;;2.70;2.50;;;;;;;;;;4937135;29;20259;-87
2024/01/04 06:06:48;;;;;;;3.73;2.80;;;;;;;;;;4937266;29;20632;-87
2024/01/04 06:09:20;;;;;;;2.40;2.20;;;;;;;;;;4934732;29;20251;-86
2024/01/04 06:11:51;;;;;;;3.03;2.53;;;;;;;;;;4939199;29;20200;-88
2024/01/04 06:14:19;;;;;;;5.63;2.53;;;;;;;;;;4941640;29;20361;-86
2024/01/04 06:16:46;;;;;;;4.03;2.67;;;;;;;;;;4939049;29;20195;-87
2024/01/04 06:19:13;;;;;;;4.60;3.10;;;;;;;;;;4947018;29;20208;-86
2024/01/04 06:21:42;;;;;;;12.80;4.23;;;;;;;;;;4947248;29;20206;-84
2024/01/04 06:24:13;;;;;;;15.27;3.10;;;;;;;;;;4941770;29;20208;-87
2024/01/04 06:26:41;;;;;;;5.00;3.40;;;;;;;;;;4942138;29;20736;-86
2024/01/04 06:29:10;;;;;;;4.00;3.70;;;;;;;;;;4937956;29;20313;-88
2024/01/04 06:31:38;;;;;;;7.53;3.70;;;;;;;;;;4936418;29;20641;-87
2024/01/04 06:34:05;;;;;;;5.30;2.97;;;;;;;;;;4937669;29;20645;-86
2024/01/04 06:36:33;;;;;;;4.60;4.10;;;;;;;;;;4936262;29;20203;-86
2024/01/04 06:39:01;;;;;;;4.13;3.83;;;;;;;;;;4935165;29;20239;-87
2024/01/04 06:41:31;;;;;;;3.80;3.43;;;;;;;;;;4934894;29;20211;-87
2024/01/04 06:44:00;;;;;;;7.63;3.90;;;;;;;;;;4936598;29;20202;-86
2024/01/04 06:46:29;;;;;;;4.17;3.10;;;;;;;;;;4936953;29;20206;-87
2024/01/04 06:48:56;;;;;;;2.83;2.63;;;;;;;;;;4941076;29;20230;-87
2024/01/04 06:51:26;;;;;;;17.23;3.30;;;;;;;;;;4936568;29;20251;-87
2024/01/04 06:53:54;;;;;;;4.17;3.77;;;;;;;;;;4935602;29;20322;-86
2024/01/04 06:56:24;;;;;;;3.83;3.53;;;;;;;;;;4935808;29;20286;-88
2024/01/04 06:58:54;;;;;;;4.10;3.70;;;;;;;;;;4937308;29;20296;-86
2024/01/04 07:01:23;;;;;;;3.67;3.30;;;;;;;;;;4936209;29;20199;-87
2024/01/04 07:03:51;;;;;;;2.80;2.60;;;;;;;;;;4936219;29;20203;-87
2024/01/04 07:06:18;;;;;;;3.33;2.97;;;;;;;;;;4936151;29;20187;-87
2024/01/04 07:08:45;;;;;;;3.73;2.37;;;;;;;;;;4935317;29;20246;-86
2024/01/04 07:11:12;;;;;;;3.00;2.80;;;;;;;;;;4939441;29;20220;-86
2024/01/04 07:13:40;;;;;;;8.60;2.73;;;;;;;;;;4939555;29;20735;-87
2024/01/04 07:16:10;;;;;;;2.60;2.40;;;;;;;;;;4934962;29;20758;-87
2024/01/04 07:18:41;;;;;;;3.27;2.70;;;;;;;;;;4935579;29;20200;-86
2024/01/04 07:21:08;;;;;;;9.60;2.83;;;;;;;;;;4935674;29;20392;-88
2024/01/04 07:23:37;;;;;;;3.10;2.90;;;;;;;;;;4935178;29;20213;-87
2024/01/04 07:26:07;;;;;;;2.13;2.00;;;;;;;;;;4935396;29;20599;-88
2024/01/04 07:28:35;;;;;;;2.70;2.07;;;;;;;;;;4940664;29;20264;-87
2024/01/04 07:31:02;;;;;;;2.30;1.70;;;;;;;;;;4937269;29;20196;-87
2024/01/04 07:33:31;;;;;;;3.50;2.03;;;;;;;;;;4934801;29;20528;-86
2024/01/04 07:36:01;;;;;;;1.60;1.50;;;;;;;;;;4924038;29;20310;-87
2024/01/04 07:38:29;;;;;;;2.70;2.50;;;;;;;;;;4909782;29;20247;-87
2024/01/04 07:40:57;;;;;;;3.67;2.23;;;;;;;;;;4918500;29;20205;-87
2024/01/04 07:43:24;;;;;;;1.33;1.33;;;;;;;;;;4912258;29;20226;-88
2024/01/04 07:45:51;;;;;;;3.60;1.90;;;;;;;;;;4912912;29;20229;-88
2024/01/04 07:48:18;;;;;;;5.63;1.77;;;;;;;;;;4902577;29;20228;-88
2024/01/04 07:50:47;;;;;;;2.50;2.07;;;;;;;;;;4920561;29;20209;-88
2024/01/04 07:53:16;;;;;;;3.70;2.10;;;;;;;;;;4919011;29;20761;-87
2024/01/04 07:55:43;;;;;;;1.70;1.60;;;;;;;;;;4920141;29;20678;-88
2024/01/04 07:58:10;;;;;;;2.90;2.00;;;;;;;;;;4920103;29;20208;-88
2024/01/04 08:00:38;;;;;;;2.17;2.07;;;;;;;;;;4921270;29;20415;-88
2024/01/04 08:03:06;;;;;;;4.97;2.13;;;;;;;;;;4920635;29;20208;-86
2024/01/04 08:05:33;;;;;;;3.43;2.67;;;;;;;;;;4921303;29;20294;-87
2024/01/04 08:08:04;;;;;;;6.87;2.70;;;;;;;;;;4918383;29;20307;-87
2024/01/04 08:10:31;;;;;;;5.87;3.00;;;;;;;;;;4918638;29;20242;-86
2024/01/04 08:13:03;;;;;;;2.93;2.73;;;;;;;;;;4918894;29;20674;-88
2024/01/04 08:15:33;;;;;;;6.57;2.80;;;;;;;;;;4918283;29;20626;-87
2024/01/04 08:18:01;;;;;;;2.20;2.10;;;;;;;;;;4920571;29;20238;-87
2024/01/04 08:20:29;;;;;;;2.80;2.60;;;;;;;;;;4902556;29;20224;-87
2024/01/04 08:22:56;;;;;;;4.57;2.47;;;;;;;;;;4899516;29;20201;-86
2024/01/04 08:25:26;;;;;;;2.93;2.70;;;;;;;;;;4899170;29;20208;-88
2024/01/04 08:27:54;;;;;;;3.07;2.20;;;;;;;;;;4899525;29;20264;-86
2024/01/04 08:30:22;;;;;;;7.63;2.63;;;;;;;;;;4899810;29;20755;-86
2024/01/04 08:33:02;;;;;;;6.87;3.33;;;;;;;;;;4899510;29;20597;-86
2024/01/04 08:35:32;;;;;;;3.03;2.30;;;;;;;;;;4899570;29;20209;-87
2024/01/04 08:37:59;;;;;;;9.77;3.17;;;;;;;;;;4900069;29;20296;-85
2024/01/04 08:40:30;;;;;;;4.17;2.43;;;;;;;;;;4905771;29;20201;-87
2024/01/04 08:43:02;;;;;;;4.30;3.17;;;;;;;;;;4899469;29;20213;-88
2024/01/04 08:45:33;;;;;;;3.10;2.87;;;;;;;;;;4898520;29;20214;-87
2024/01/04 08:48:00;;;;;;;6.90;3.23;;;;;;;;;;4899766;29;20266;-86
2024/01/04 08:50:28;;;;;;;7.27;4.07;;;;;;;;;;4882811;29;20322;-87
2024/01/04 08:53:00;;;;;;;8.03;3.20;;;;;;;;;;4898905;29;20211;-87
2024/01/04 08:55:30;;;;;;;5.33;3.30;;;;;;;;;;4907564;29;20231;-87
2024/01/04 08:57:58;;;;;;;3.53;3.07;;;;;;;;;;4910258;29;20217;-87
2024/01/04 09:00:27;;;;;;;3.37;3.17;;;;;;;;;;4912273;29;20205;-87
2024/01/04 09:02:54;;;;;;;6.17;3.03;;;;;;;;;;4910155;29;20224;-87
2024/01/04 09:05:23;;;;;;;4.43;3.33;;;;;;;;;;4919171;29;20198;-86
2024/01/04 09:07:55;;;;;;;10.13;4.07;;;;;;;;;;4918525;29;20235;-87
2024/01/04 09:10:24;;;;;;;6.00;3.37;;;;;;;;;;4900110;29;20225;-87
2024/01/04 09:13:00;;;;;;;3.87;3.27;;;;;;;;;;4899318;29;20209;-87
2024/01/04 09:15:34;;;;;;;2.63;2.43;;;;;;;;;;4897667;29;20285;-87
2024/01/04 09:18:07;;;;;;;3.87;2.73;;;;;;;;;;4902249;29;20210;-88
2024/01/04 09:20:34;;;;;;;10.40;3.30;;;;;;;;;;4899266;29;20259;-87
2024/01/04 09:23:02;;;;;;;3.13;2.77;;;;;;;;;;4898693;29;20264;-86
2024/01/04 09:25:31;;;;;;;3.40;3.10;;;;;;;;;;4901847;29;20227;-87
2024/01/04 09:28:03;;;;;;;3.23;3.03;;;;;;;;;;4900021;29;20627;-88
2024/01/04 09:30:33;;;;;;;3.53;3.23;;;;;;;;;;4906529;29;20232;-84
2024/01/04 09:33:06;;;;;;;3.60;3.30;;;;;;;;;;4900077;29;20230;-87
2024/01/04 09:35:42;;;;;;;3.27;3.00;;;;;;;;;;4912313;29;20218;-87
2024/01/04 09:38:11;;;;;;;4.00;3.27;;;;;;;;;;4913789;29;20654;-87
2024/01/04 09:43:30;;;;;;;7.10;3.93;;;;;;;;;;4917464;29;20217;-86
2024/01/04 09:46:00;;;;;;;6.23;3.23;;;;;;;;;;4917410;29;20201;-87
2024/01/04 09:48:31;;;;;;;5.23;3.23;;;;;;;;;;4919226;29;20200;-87
2024/01/04 09:50:58;;;;;;;3.73;2.70;;;;;;;;;;4919807;29;20241;-88
2024/01/04 09:53:33;;;;;;;7.87;3.57;;;;;;;;;;4918404;29;20198;-87
2024/01/04 09:56:04;;;;;;;3.47;2.50;;;;;;;;;;4909754;29;20201;-86
2024/01/04 09:58:34;;;;;;;4.00;2.90;;;;;;;;;;4903591;29;20206;-87
2024/01/04 10:01:04;;;;;;;5.97;2.67;;;;;;;;;;4896287;29;20207;-88
2024/01/04 10:03:32;;;;;;;3.67;2.90;;;;;;;;;;4897554;29;20208;-88
2024/01/04 10:06:02;;;;;;;4.13;2.73;;;;;;;;;;4897358;29;20693;-88
2024/01/04 10:08:34;;;;;;;2.30;2.10;;;;;;;;;;4898074;29;20232;-88
2024/01/04 10:11:04;;;;;;;2.50;1.87;;;;;;;;;;4898658;29;20358;-87
2024/01/04 10:13:34;;;;;;;3.00;1.50;;;;;;;;;;4898497;29;20233;-87
2024/01/04 10:16:05;;;;;;;7.83;2.37;;;;;;;;;;4904941;29;20235;-87
2024/01/04 10:18:33;;;;;;;6.43;2.77;;;;;;;;;;4905201;29;20205;-87
2024/01/04 10:21:03;;;;;;;4.30;2.33;;;;;;;;;;4907956;29;20198;-87
2024/01/04 10:23:30;;;;;;;3.97;2.27;;;;;;;;;;4913562;29;20200;-87
2024/01/04 10:26:06;;;;;;;2.50;2.30;;;;;;;;;;4909669;29;20189;-87
2024/01/04 10:28:44;;;;;;;6.20;2.50;;;;;;;;;;4912866;29;20218;-88
2024/01/04 10:31:11;;;;;;;6.53;2.70;;;;;;;;;;4899326;29;20349;-87
2024/01/04 10:33:42;;;;;;;2.17;1.97;;;;;;;;;;4899260;29;20208;-87
2024/01/04 10:36:11;;;;;;;3.87;1.70;;;;;;;;;;4899962;29;20212;-88
2024/01/04 10:38:40;;;;;;;2.23;2.00;;;;;;;;;;4902346;29;20598;-88
2024/01/04 10:41:09;;;;;;;2.23;2.13;;;;;;;;;;4898145;29;20693;-88
2024/01/04 10:43:45;;;;;;;5.50;2.80;;;;;;;;;;4897524;29;20702;-89
2024/01/04 10:46:15;;;;;;;2.00;1.80;;;;;;;;;;4898192;29;20553;-87
2024/01/04 10:48:43;;;;;;;3.70;2.67;;;;;;;;;;4901199;29;20223;-89
2024/01/04 10:51:12;;;;;;;5.10;2.67;;;;;;;;;;4897363;29;20685;-87
2024/01/04 10:53:40;;;;;;;6.00;2.47;;;;;;;;;;4898473;29;20293;-87
2024/01/04 10:56:14;;;;;;;4.50;2.80;;;;;;;;;;4899402;29;20195;-88
2024/01/04 10:58:54;;;;;;;4.30;2.35;;;;;;;;;;4897812;29;20290;-86
2024/01/04 11:01:25;;;;;;;2.85;2.33;;;;;;;;;;4898443;29;20196;-86
2024/01/04 11:03:55;;;;;;;2.50;2.30;;;;;;;;;;4899036;29;20211;-87
2024/01/04 11:06:23;;;;;;;5.20;3.08;;;;;;;;;;4897699;29;20222;-87
2024/01/04 11:08:55;;;;;;;4.25;2.90;;;;;;;;;;4897900;29;20306;-86
2024/01/04 11:11:23;;;;;;;0.82;0.82;;;;;;;;;;4900015;29;20250;-86
2024/01/04 11:13:52;;;;;;;1.45;1.35;;;;;;;;;;4901886;29;20226;-85
2024/01/04 11:16:38;;;;;;;0.80;0.80;;;;;;;;;;4902782;29;20663;-86
2024/01/04 11:19:10;;;;;;;0.30;0.30;;;;;;;;;;4902283;29;20235;-86
2024/01/04 11:21:49;;;;;;;0.60;0.40;;;;;;;;;;4901345;29;20748;-86
2024/01/04 11:24:30;;;;;;;1.00;0.60;;;;;;;;;;4903524;29;20691;-89
2024/01/04 11:27:00;;;;;;;0.40;0.40;;;;;;;;;;4905990;29;20207;-90
2024/01/04 11:29:29;;;;;;;0.52;0.52;;;;;;;;;;4905296;29;20198;-88
2024/01/04 11:32:02;;;;;;;2.47;0.80;;;;;;;;;;4903617;29;20204;-89
2024/01/04 11:34:31;;;;;;;1.50;0.82;;;;;;;;;;4914731;29;20225;-87
2024/01/04 11:37:19;;;;;;;3.13;0.68;;;;;;;;;;4916307;29;20226;-88
2024/01/04 11:39:58;;;;;;;0.65;0.65;;;;;;;;;;4913741;29;20214;-87
2024/01/04 11:42:59;;;;;;;0.93;0.70;;;;;;;;;;4907698;29;20198;-88
2024/01/04 11:45:44;;;;;;;3.05;0.70;;;;;;;;;;4906224;29;20685;-89
2024/01/04 11:48:20;;;;;;;1.75;0.68;;;;;;;;;;4911587;29;20274;-88
2024/01/04 11:50:50;;;;;;;1.85;0.52;;;;;;;;;;4907018;29;20234;-87
2024/01/04 11:53:24;;;;;;;0.95;0.82;;;;;;;;;;4904804;29;20724;-89
2024/01/04 11:55:52;;;;;;;1.00;0.70;;;;;;;;;;4908413;29;20191;-87
2024/01/04 11:58:26;;;;;;;0.50;0.50;;;;;;;;;;4901949;29;20219;-89
2024/01/04 12:00:58;;;;;;;4.40;0.70;;;;;;;;;;4901462;29;20201;-88
2024/01/04 12:03:28;;;;;;;0.67;0.60;;;;;;;;;;4901798;29;20223;-88
2024/01/04 12:06:01;;;;;;;0.43;0.43;;;;;;;;;;4903361;29;20202;-88
2024/01/04 12:08:30;;;;;;;0.80;0.70;;;;;;;;;;4902488;29;20722;-88
2024/01/04 12:11:04;;;;;;;0.33;0.33;;;;;;;;;;4902070;29;20246;-87
2024/01/04 12:13:31;;;;;;;0.63;0.60;;;;;;;;;;4902428;29;20203;-87
2024/01/04 12:16:03;;;;;;;0.53;0.53;;;;;;;;;;4912720;29;20279;-86
2024/01/04 12:18:32;;;;;;;0.50;0.50;;;;;;;;;;4915143;29;20220;-88
2024/01/04 12:21:07;;;;;;;1.33;0.40;;;;;;;;;;4902429;29;20212;-87
2024/01/04 12:23:39;;;;;;;0.40;0.40;;;;;;;;;;4900674;29;20235;-88
2024/01/04 12:26:10;;;;;;;0.63;0.50;;;;;;;;;;4901448;29;20273;-89
2024/01/04 12:28:40;;;;;;;1.17;0.73;;;;;;;;;;4901382;29;20199;-88
2024/01/04 12:31:12;;;;;;;0.40;0.40;;;;;;;;;;4910141;29;20688;-87
2024/01/04 12:33:51;;;;;;;0.40;0.40;;;;;;;;;;4916458;29;20295;-86
2024/01/04 12:36:28;;;;;;;0.53;0.50;;;;;;;;;;4919468;29;20207;-87
2024/01/04 12:38:57;;;;;;;1.30;1.20;;;;;;;;;;4909726;29;20678;-88
2024/01/04 12:41:30;;;;;;;3.37;0.50;;;;;;;;;;4908002;29;20272;-87
2024/01/04 12:44:23;;;;;;;3.63;0.70;;;;;;;;;;4917346;29;20336;-86
2024/01/04 12:46:55;;;;;;;0.40;0.40;;;;;;;;;;4906116;29;20210;-88
2024/01/04 12:49:38;;;;;;;0.70;0.60;;;;;;;;;;4906720;29;20241;-88
2024/01/04 12:52:17;;;;;;;0.30;0.30;;;;;;;;;;4904684;29;20352;-88
2024/01/04 12:54:46;;;;;;;0.30;0.30;;;;;;;;;;4905815;29;20272;-88
2024/01/04 12:57:13;;;;;;;0.63;0.40;;;;;;;;;;4905404;29;20218;-87
2024/01/04 12:59:46;;;;;;;0.50;0.50;;;;;;;;;;4909656;29;20759;-87
2024/01/04 13:02:17;;;;;;;0.20;0.20;;;;;;;;;;4912771;29;20213;-85
2024/01/04 13:04:47;;;;;;;0.80;0.50;;;;;;;;;;4914222;29;20239;-87
2024/01/04 13:07:16;;;;;;;4.10;0.70;;;;;;;;;;4906646;29;20284;-87
2024/01/04 13:09:46;;;;;;;0.50;0.50;;;;;;;;;;4908972;29;20248;-88
2024/01/04 13:12:16;;;;;;;1.90;0.50;;;;;;;;;;4910252;29;20354;-88
2024/01/04 13:14:49;;;;;;;0.70;0.70;;;;;;;;;;4910636;29;20309;-87
2024/01/04 13:17:27;;;;;;;0.80;0.80;;;;;;;;;;4913143;29;20632;-87
2024/01/04 13:19:55;;;;;;;0.70;0.70;;;;;;;;;;4913856;29;20202;-86
2024/01/04 13:22:29;;;;;;;2.33;1.10;;;;;;;;;;4914777;29;20210;-85
2024/01/04 13:25:09;;;;;;;1.37;0.77;;;;;;;;;;4923531;29;20219;-89
2024/01/04 13:27:37;;;;;;;0.97;0.90;;;;;;;;;;4919108;29;20211;-87
2024/01/04 13:30:11;;;;;;;1.47;0.67;;;;;;;;;;4916230;29;20681;-86
2024/01/04 13:32:45;;;;;;;0.77;0.60;;;;;;;;;;4919156;29;20241;-90
2024/01/04 13:35:12;;;;;;;2.73;0.50;;;;;;;;;;4908070;29;20233;-86
2024/01/04 13:37:45;;;;;;;9.47;0.50;;;;;;;;;;4913689;29;20200;-86
2024/01/04 13:40:27;;;;;;;0.70;0.40;;;;;;;;;;4919917;29;20197;-87
2024/01/04 13:43:01;;;;;;;0.40;0.40;;;;;;;;;;4919403;29;20195;-87
2024/01/04 13:45:30;;;;;;;0.50;0.50;;;;;;;;;;4908516;29;20256;-86
2024/01/04 13:48:16;;;;;;;0.47;0.47;;;;;;;;;;4899204;29;20211;-87
2024/01/04 13:50:49;;;;;;;0.30;0.30;;;;;;;;;;4919595;29;20244;-87
2024/01/04 13:53:16;;;;;;;0.20;0.20;;;;;;;;;;4920278;29;20195;-86
2024/01/04 13:55:50;;;;;;;0.60;0.60;;;;;;;;;;4917270;29;20201;-86
2024/01/04 13:58:26;;;;;;;1.35;0.60;;;;;;;;;;4920173;29;20482;-85
2024/01/04 14:00:56;;;;;;;0.27;0.27;;;;;;;;;;4918398;29;20195;-86
2024/01/04 14:03:25;;;;;;;1.50;0.33;;;;;;;;;;4917858;29;20246;-86
2024/01/04 14:05:53;;;;;;;1.80;0.97;;;;;;;;;;4920782;29;20213;-86
2024/01/04 14:08:23;;;;;;;2.40;0.53;;;;;;;;;;4920166;29;20306;-86
2024/01/04 14:10:50;;;;;;;1.53;0.30;;;;;;;;;;4922589;29;20291;-87
2024/01/04 14:13:24;;;;;;;0.53;0.53;;;;;;;;;;4934009;29;20235;-86
2024/01/04 14:15:51;;;;;;;6.17;2.97;;;;;;;;;;4924783;29;20259;-86
2024/01/04 14:18:19;;;;;;;4.60;3.43;;;;;;;;;;4918415;29;20211;-88
2024/01/04 14:20:51;;;;;;;6.30;3.17;;;;;;;;;;4919219;29;20706;-89
2024/01/04 14:23:28;;;;;;;6.23;2.23;;;;;;;;;;4920338;29;20204;-88
2024/01/04 14:25:56;;;;;;;1.30;1.20;;;;;;;;;;4925907;29;20589;-87
2024/01/04 14:28:26;;;;;;;1.30;1.20;;;;;;;;;;4924906;29;20215;-86
2024/01/04 14:30:58;;;;;;;1.90;1.43;;;;;;;;;;4920112;29;20653;-87
2024/01/04 14:33:29;;;;;;;2.10;1.63;;;;;;;;;;4921194;29;20208;-86
2024/01/04 14:35:57;;;;;;;1.20;0.60;;;;;;;;;;4922541;29;20184;-86
2024/01/04 14:38:26;;;;;;;0.40;0.40;;;;;;;;;;4924797;29;20307;-87
2024/01/04 14:40:54;;;;;;;0.40;0.40;;;;;;;;;;4923845;29;20212;-89
2024/01/04 14:43:22;;;;;;;1.60;1.47;;;;;;;;;;4920466;29;20204;-88
2024/01/04 14:45:54;;;;;;;5.43;3.27;;;;;;;;;;4920664;29;20208;-87
2024/01/04 14:48:22;;;;;;;2.50;1.50;;;;;;;;;;4923710;29;20204;-88
2024/01/04 14:51:00;;;;;;;0.60;0.60;;;;;;;;;;4926681;29;20247;-89
2024/01/04 14:53:35;;;;;;;0.80;0.80;;;;;;;;;;4926513;29;20204;-90
2024/01/04 14:56:03;;;;;;;0.60;0.60;;;;;;;;;;4927133;29;20204;-89
2024/01/04 14:58:33;;;;;;;0.80;0.80;;;;;;;;;;4929826;29;20210;-89
2024/01/04 15:01:00;;;;;;;1.30;1.20;;;;;;;;;;4926802;29;20220;-90
2024/01/04 15:03:40;;;;;;;3.07;1.63;;;;;;;;;;4924826;29;20200;-88
2024/01/04 15:06:11;;;;;;;1.83;0.73;;;;;;;;;;4925013;29;20211;-88
2024/01/04 15:08:48;;;;;;;2.53;1.80;;;;;;;;;;4923726;29;20250;-89